createdAt,value
2023-05-06T00:00:21.072Z,3.25
2023-05-06T00:02:48.424Z,3.08
2023-05-06T00:05:18.717Z,3.72
2023-05-06T00:07:49.057Z,3.70
2023-05-06T00:10:17.183Z,3.35
2023-05-06T00:12:44.261Z,4.03
2023-05-06T00:15:11.946Z,3.45
2023-05-06T00:17:39.284Z,3.75
2023-05-06T00:20:07.374Z,3.90
2023-05-06T00:22:34.574Z,4.15
2023-05-06T00:25:01.883Z,4.22
2023-05-06T00:27:28.942Z,4.47
2023-05-06T00:29:57.888Z,4.10
2023-05-06T00:32:25.003Z,3.97
2023-05-06T00:34:52.136Z,4.05
2023-05-06T00:37:19.268Z,4.43
2023-05-06T00:39:46.397Z,4.72
2023-05-06T00:42:13.669Z,4.43
2023-05-06T00:44:40.728Z,4.55
2023-05-06T00:47:08.344Z,4.38
2023-05-06T00:49:35.542Z,3.97
2023-05-06T00:52:02.928Z,4.20
2023-05-06T00:54:30.135Z,4.00
2023-05-06T00:56:57.300Z,4.00
2023-05-06T00:59:24.478Z,4.22
2023-05-06T01:01:52.564Z,4.18
2023-05-06T01:04:20.385Z,4.20
2023-05-06T01:07:09.889Z,4.53
2023-05-06T01:09:43.416Z,4.47
2023-05-06T01:12:19.088Z,4.30
2023-05-06T01:15:01.999Z,4.05
2023-05-06T01:17:31.139Z,3.65
2023-05-06T01:19:59.610Z,3.70
2023-05-06T01:22:27.329Z,3.88
2023-05-06T01:24:54.364Z,4.00
2023-05-06T01:27:23.283Z,3.50
2023-05-06T01:29:50.305Z,3.80
2023-05-06T01:32:33.604Z,3.58
2023-05-06T01:35:18.354Z,3.90
2023-05-06T01:38:12.143Z,4.18
2023-05-06T01:40:40.843Z,3.88
2023-05-06T01:43:08.200Z,3.72
2023-05-06T01:45:37.027Z,3.70
2023-05-06T01:48:04.709Z,3.58
2023-05-06T01:50:32.938Z,3.50
2023-05-06T01:53:02.262Z,4.43
2023-05-06T01:55:29.681Z,3.60
2023-05-06T01:57:57.147Z,3.80
2023-05-06T02:00:26.708Z,4.18
2023-05-06T02:02:54.130Z,3.58
2023-05-06T02:05:21.379Z,4.03
2023-05-06T02:07:52.968Z,3.58
2023-05-06T02:10:20.691Z,4.18
2023-05-06T02:12:54.791Z,4.00
2023-05-06T02:15:23.240Z,4.28
2023-05-06T02:17:50.555Z,4.07
2023-05-06T02:20:17.675Z,3.70
2023-05-06T02:22:45.330Z,4.28
2023-05-06T02:25:12.396Z,4.38
2023-05-06T02:27:39.440Z,4.38
2023-05-06T02:30:07.378Z,4.28
2023-05-06T02:32:34.438Z,3.97
2023-05-06T02:35:01.584Z,4.00
2023-05-06T02:37:28.582Z,3.95
2023-05-06T02:39:55.758Z,3.85
2023-05-06T02:42:22.802Z,3.70
2023-05-06T02:44:49.915Z,4.70
2023-05-06T02:47:16.959Z,3.88
2023-05-06T02:49:44.738Z,4.07
2023-05-06T02:52:12.954Z,3.53
2023-05-06T02:54:40.087Z,3.95
2023-05-06T02:57:07.417Z,3.97
2023-05-06T02:59:35.761Z,4.22
2023-05-06T03:02:03.362Z,3.97
2023-05-06T03:04:30.522Z,3.80
2023-05-06T03:06:57.748Z,3.53
2023-05-06T03:09:25.173Z,4.30
2023-05-06T03:11:52.375Z,4.15
2023-05-06T03:14:20.308Z,4.38
2023-05-06T03:16:47.593Z,4.18
2023-05-06T03:19:15.519Z,4.43
2023-05-06T03:21:44.577Z,3.88
2023-05-06T03:24:11.714Z,4.13
2023-05-06T03:26:39.329Z,3.65
2023-05-06T03:29:07.665Z,4.13
2023-05-06T03:31:35.761Z,3.90
2023-05-06T03:34:03.374Z,4.05
2023-05-06T03:36:33.588Z,3.63
2023-05-06T03:39:00.967Z,4.03
2023-05-06T03:41:29.729Z,3.90
2023-05-06T03:43:57.146Z,3.80
2023-05-06T03:46:27.048Z,4.00
2023-05-06T03:48:54.299Z,3.60
2023-05-06T03:51:21.552Z,3.63
2023-05-06T03:53:48.748Z,3.70
2023-05-06T03:56:18.404Z,3.58
2023-05-06T03:58:48.845Z,3.40
2023-05-06T04:01:17.393Z,3.30
2023-05-06T04:03:45.021Z,3.45
2023-05-06T04:06:12.708Z,3.25
2023-05-06T04:08:39.845Z,3.20
2023-05-06T04:11:07.890Z,3.33
2023-05-06T04:13:36.804Z,2.75
2023-05-06T04:16:10.017Z,3.10
2023-05-06T04:18:41.126Z,3.10
2023-05-06T04:21:14.275Z,3.25
2023-05-06T04:23:44.507Z,2.83
2023-05-06T04:26:15.794Z,2.60
2023-05-06T04:28:44.353Z,2.40
2023-05-06T04:31:14.796Z,2.45
2023-05-06T04:33:47.837Z,2.65
2023-05-06T04:36:17.502Z,2.67
2023-05-06T04:39:06.889Z,2.67
2023-05-06T04:41:35.029Z,2.72
2023-05-06T04:44:02.182Z,2.60
2023-05-06T04:46:29.380Z,2.75
2023-05-06T04:48:58.400Z,2.40
2023-05-06T04:51:26.968Z,2.25
2023-05-06T04:53:54.443Z,2.08
2023-05-06T04:56:21.685Z,2.60
2023-05-06T04:58:50.279Z,2.55
2023-05-06T05:01:19.528Z,2.33
2023-05-06T05:03:46.918Z,2.33
2023-05-06T05:06:14.197Z,2.38
2023-05-06T05:08:42.040Z,2.30
2023-05-06T05:11:09.749Z,2.25
2023-05-06T05:13:37.858Z,2.05
2023-05-06T05:16:06.158Z,1.83
2023-05-06T05:18:35.824Z,2.45
2023-05-06T05:21:09.857Z,2.10
2023-05-06T05:23:37.078Z,2.10
2023-05-06T05:26:04.174Z,2.17
2023-05-06T05:28:32.398Z,2.05
2023-05-06T05:31:04.345Z,2.25
2023-05-06T05:33:34.451Z,1.95
2023-05-06T05:36:04.500Z,1.88
2023-05-06T05:38:32.510Z,2.30
2023-05-06T05:41:00.212Z,1.98
2023-05-06T05:43:27.807Z,2.30
2023-05-06T05:45:56.092Z,1.92
2023-05-06T05:48:23.577Z,1.98
2023-05-06T05:50:51.041Z,2.13
2023-05-06T05:53:18.253Z,1.92
2023-05-06T05:55:45.724Z,2.08
2023-05-06T05:58:13.045Z,2.08
2023-05-06T06:00:41.355Z,2.20
2023-05-06T06:03:13.201Z,2.20
2023-05-06T06:05:40.410Z,2.10
2023-05-06T06:08:07.878Z,2.40
2023-05-06T06:10:36.021Z,2.15
2023-05-06T06:13:09.541Z,2.13
2023-05-06T06:15:37.425Z,1.65
2023-05-06T06:18:04.758Z,1.88
2023-05-06T06:20:31.916Z,1.85
2023-05-06T06:22:59.074Z,1.90
2023-05-06T06:25:26.196Z,1.80
2023-05-06T06:27:55.890Z,1.70
2023-05-06T06:30:24.174Z,1.80
2023-05-06T06:32:53.080Z,1.63
2023-05-06T06:35:20.445Z,1.80
2023-05-06T06:37:47.739Z,1.70
2023-05-06T06:40:15.526Z,1.73
2023-05-06T06:42:42.680Z,1.40
2023-05-06T06:45:29.705Z,1.65
2023-05-06T06:47:56.824Z,1.80
2023-05-06T06:50:23.880Z,2.00
2023-05-06T06:52:50.928Z,2.33
2023-05-06T06:55:18.055Z,1.83
2023-05-06T06:57:45.216Z,1.80
2023-05-06T07:00:12.914Z,2.08
2023-05-06T07:02:40.039Z,1.70
2023-05-06T07:05:07.505Z,2.03
2023-05-06T07:07:34.735Z,1.10
2023-05-06T07:10:01.955Z,1.60
2023-05-06T07:12:28.926Z,1.35
2023-05-06T07:14:56.036Z,1.48
2023-05-06T07:17:23.423Z,1.60
2023-05-06T07:19:50.601Z,1.48
2023-05-06T07:22:17.719Z,1.42
2023-05-06T07:24:44.829Z,1.60
2023-05-06T07:27:11.908Z,1.20
2023-05-06T07:29:39.012Z,1.15
2023-05-06T07:32:06.362Z,0.90
2023-05-06T07:34:34.687Z,1.40
2023-05-06T07:37:01.999Z,1.30
2023-05-06T07:39:29.180Z,1.17
2023-05-06T07:41:56.488Z,1.20
2023-05-06T07:44:23.483Z,1.30
2023-05-06T07:46:51.054Z,1.40
2023-05-06T07:49:18.083Z,1.45
2023-05-06T07:51:45.755Z,1.13
2023-05-06T07:54:12.998Z,1.60
2023-05-06T07:56:40.024Z,0.98
2023-05-06T07:59:07.165Z,1.02
2023-05-06T08:01:34.356Z,1.30
2023-05-06T08:04:01.466Z,1.35
2023-05-06T08:06:28.741Z,1.50
2023-05-06T08:08:55.847Z,1.30
2023-05-06T08:11:22.894Z,1.58
2023-05-06T08:13:49.975Z,1.20
2023-05-06T08:16:17.147Z,1.90
2023-05-06T08:18:44.311Z,1.60
2023-05-06T08:21:11.348Z,1.70
2023-05-06T08:23:38.408Z,1.80
2023-05-06T08:26:05.399Z,1.58
2023-05-06T08:28:32.630Z,1.30
2023-05-06T08:30:59.705Z,1.42
2023-05-06T08:33:27.399Z,1.10
2023-05-06T08:35:57.741Z,1.52
2023-05-06T08:38:26.255Z,1.77
2023-05-06T08:40:54.775Z,1.40
2023-05-06T08:43:22.558Z,1.58
2023-05-06T08:45:49.853Z,1.88
2023-05-06T08:48:17.228Z,4.20
2023-05-06T08:50:44.637Z,1.55
2023-05-06T08:53:13.745Z,1.20
2023-05-06T08:55:42.426Z,1.58
2023-05-06T08:58:11.988Z,1.70
2023-05-06T09:00:39.515Z,1.13
2023-05-06T09:03:06.963Z,2.25
2023-05-06T09:05:34.173Z,2.03
2023-05-06T09:11:23.334Z,2.35
2023-05-06T09:13:51.655Z,2.13
2023-05-06T09:16:33.694Z,1.70
2023-05-06T09:21:35.985Z,1.20
2023-05-06T09:24:04.700Z,1.30
2023-05-06T09:26:32.946Z,1.50
2023-05-06T09:29:00.592Z,1.45
2023-05-06T09:31:28.523Z,2.20
2023-05-06T09:33:58.564Z,1.50
2023-05-06T09:36:27.769Z,1.40
2023-05-06T09:38:55.980Z,1.92
2023-05-06T09:41:25.520Z,1.50
2023-05-06T09:43:54.217Z,2.72
2023-05-06T09:46:22.801Z,1.58
2023-05-06T09:48:54.992Z,1.35
2023-05-06T09:51:22.197Z,1.58
2023-05-06T09:53:49.308Z,1.40
2023-05-06T09:56:16.702Z,1.55
2023-05-06T09:58:45.050Z,1.52
2023-05-06T10:01:19.246Z,1.50
2023-05-06T10:03:54.061Z,1.40
2023-05-06T10:06:23.469Z,1.48
2023-05-06T10:08:50.556Z,2.13
2023-05-06T10:11:18.161Z,1.55
2023-05-06T10:13:47.207Z,1.38
2023-05-06T10:16:15.848Z,1.83
2023-05-06T10:18:44.965Z,2.05
2023-05-06T10:21:17.626Z,1.85
2023-05-06T10:23:51.011Z,1.90
2023-05-06T10:26:20.219Z,2.13
2023-05-06T10:28:52.844Z,1.83
2023-05-06T10:31:20.023Z,2.38
2023-05-06T10:33:49.147Z,1.60
2023-05-06T10:36:20.747Z,1.85
2023-05-06T10:38:55.112Z,2.58
2023-05-06T10:42:08.531Z,2.35
2023-05-06T10:44:59.482Z,2.17
2023-05-06T10:47:27.222Z,2.63
2023-05-06T10:50:22.169Z,2.08
2023-05-06T10:52:55.686Z,2.13
2023-05-06T10:55:33.790Z,2.38
2023-05-06T10:58:19.695Z,1.80
2023-05-06T11:00:55.359Z,2.00
2023-05-06T11:03:24.104Z,2.30
2023-05-06T11:05:52.267Z,2.22
2023-05-06T11:08:24.135Z,2.60
2023-05-06T11:13:18.490Z,1.95
2023-05-06T11:15:46.690Z,2.00
2023-05-06T11:18:28.424Z,1.90
2023-05-06T11:21:02.875Z,2.05
2023-05-06T11:23:49.711Z,1.85
2023-05-06T11:26:16.979Z,2.10
2023-05-06T11:28:46.358Z,2.17
2023-05-06T11:31:14.289Z,1.95
2023-05-06T11:33:49.909Z,2.05
2023-05-06T11:36:18.482Z,2.30
2023-05-06T11:38:53.178Z,2.15
2023-05-06T11:41:22.250Z,2.05
2023-05-06T11:43:52.773Z,2.20
2023-05-06T11:46:20.881Z,1.83
2023-05-06T11:48:48.161Z,2.28
2023-05-06T11:51:15.402Z,1.98
2023-05-06T11:53:42.400Z,1.90
2023-05-06T11:56:09.472Z,2.03
2023-05-06T11:58:36.568Z,2.58
2023-05-06T12:01:04.666Z,2.70
2023-05-06T12:03:33.562Z,2.40
2023-05-06T12:06:01.511Z,4.30
2023-05-06T12:08:36.781Z,2.47
2023-05-06T12:11:07.024Z,2.10
2023-05-06T12:13:37.129Z,1.70
2023-05-06T12:16:05.004Z,1.98
2023-05-06T12:18:32.137Z,1.80
2023-05-06T12:21:02.869Z,2.10
2023-05-06T12:23:30.063Z,1.90
2023-05-06T12:26:05.546Z,1.80
2023-05-06T12:28:33.945Z,1.88
2023-05-06T12:31:01.950Z,2.20
2023-05-06T12:33:43.804Z,2.10
2023-05-06T12:36:11.065Z,2.17
2023-05-06T12:38:38.160Z,2.13
2023-05-06T12:41:07.229Z,2.47
2023-05-06T12:43:34.335Z,2.67
2023-05-06T12:46:06.181Z,1.88
2023-05-06T12:48:33.398Z,2.70
2023-05-06T12:51:00.395Z,1.85
2023-05-06T12:53:35.145Z,2.38
2023-05-06T12:56:02.309Z,2.40
2023-05-06T12:58:29.368Z,2.25
2023-05-06T13:00:56.465Z,2.08
2023-05-06T13:03:23.592Z,2.17
2023-05-06T13:05:52.040Z,2.25
2023-05-06T13:08:21.226Z,2.10
2023-05-06T13:10:50.521Z,1.95
2023-05-06T13:13:18.887Z,2.50
2023-05-06T13:15:46.812Z,2.45
2023-05-06T13:18:13.976Z,2.13
2023-05-06T13:20:41.395Z,2.20
2023-05-06T13:23:08.471Z,2.10
2023-05-06T13:25:42.039Z,1.65
2023-05-06T13:28:20.062Z,3.17
2023-05-06T13:30:47.200Z,1.95
2023-05-06T13:33:14.391Z,2.10
2023-05-06T13:35:41.399Z,3.28
2023-05-06T13:38:08.525Z,2.25
2023-05-06T13:40:35.714Z,2.13
2023-05-06T13:43:02.995Z,3.00
2023-05-06T13:45:30.106Z,4.45
2023-05-06T13:47:57.836Z,2.58
2023-05-06T13:50:25.035Z,3.08
2023-05-06T13:52:52.124Z,2.95
2023-05-06T13:55:19.647Z,4.22
2023-05-06T13:57:46.845Z,3.80
2023-05-06T14:00:14.286Z,4.45
2023-05-06T14:02:42.593Z,3.60
2023-05-06T14:05:10.317Z,3.70
2023-05-06T14:07:40.339Z,3.45
2023-05-06T14:10:09.207Z,4.88
2023-05-06T14:12:36.452Z,2.50
2023-05-06T14:15:06.707Z,2.47
2023-05-06T14:17:33.838Z,2.00
2023-05-06T14:20:00.940Z,2.05
2023-05-06T14:22:29.503Z,1.98
2023-05-06T14:24:56.733Z,3.35
2023-05-06T14:27:23.720Z,2.97
2023-05-06T14:29:50.727Z,3.47
2023-05-06T14:32:17.798Z,2.40
2023-05-06T14:34:44.883Z,2.22
2023-05-06T14:37:11.865Z,2.58
2023-05-06T14:39:38.924Z,2.03
2023-05-06T14:42:06.033Z,2.38
2023-05-06T14:44:33.067Z,1.80
2023-05-06T14:47:00.453Z,2.45
2023-05-06T14:49:27.472Z,1.60
2023-05-06T14:51:54.517Z,7.65
2023-05-06T14:54:21.509Z,2.50
2023-05-06T14:56:51.941Z,2.20
2023-05-06T14:59:19.154Z,4.28
2023-05-06T15:01:46.235Z,3.35
2023-05-06T15:04:13.329Z,4.00
2023-05-06T15:06:40.530Z,6.38
2023-05-06T15:09:07.643Z,4.00
2023-05-06T15:11:34.652Z,3.15
2023-05-06T15:14:01.722Z,2.92
2023-05-06T15:16:28.838Z,1.75
2023-05-06T15:18:55.846Z,5.10
2023-05-06T15:21:22.954Z,2.60
2023-05-06T15:23:50.277Z,1.90
2023-05-06T15:26:17.334Z,4.88
2023-05-06T15:28:44.402Z,2.70
2023-05-06T15:31:11.502Z,5.40
2023-05-06T15:33:38.606Z,2.60
2023-05-06T15:36:06.379Z,4.75
2023-05-06T15:38:53.181Z,3.80
2023-05-06T15:41:21.113Z,4.25
2023-05-06T15:43:48.128Z,3.42
2023-05-06T15:46:15.224Z,3.78
2023-05-06T15:48:43.142Z,2.50
2023-05-06T15:51:10.247Z,2.20
2023-05-06T15:53:40.766Z,2.33
2023-05-06T15:56:16.574Z,2.75
2023-05-06T15:58:45.105Z,2.60
2023-05-06T16:01:12.524Z,2.40
2023-05-06T16:03:42.625Z,2.38
2023-05-06T16:06:11.350Z,2.55
2023-05-06T16:08:39.148Z,5.97
2023-05-06T16:11:07.104Z,1.77
2023-05-06T16:13:34.726Z,3.20
2023-05-06T16:16:01.953Z,2.78
2023-05-06T16:18:29.075Z,2.13
2023-05-06T16:20:56.315Z,1.67
2023-05-06T16:23:23.562Z,2.25
2023-05-06T16:25:50.601Z,2.17
2023-05-06T16:28:17.909Z,1.75
2023-05-06T16:30:46.670Z,2.28
2023-05-06T16:33:14.702Z,2.42
2023-05-06T16:35:41.936Z,2.20
2023-05-06T16:38:09.235Z,1.85
2023-05-06T16:40:43.145Z,2.78
2023-05-06T16:43:10.164Z,3.10
2023-05-06T16:45:38.458Z,3.85
2023-05-06T16:48:06.723Z,2.80
2023-05-06T16:50:34.873Z,2.40
2023-05-06T16:53:01.988Z,2.97
2023-05-06T16:55:29.029Z,2.58
2023-05-06T16:57:56.083Z,2.10
2023-05-06T17:00:23.877Z,2.83
2023-05-06T17:02:51.053Z,2.40
2023-05-06T17:05:20.131Z,2.55
2023-05-06T17:07:48.505Z,2.03
2023-05-06T17:10:16.280Z,2.45
2023-05-06T17:12:43.718Z,2.88
2023-05-06T17:15:11.509Z,1.58
2023-05-06T17:17:39.791Z,1.80
2023-05-06T17:20:08.163Z,1.90
2023-05-06T17:22:35.253Z,2.10
2023-05-06T17:25:02.423Z,1.90
2023-05-06T17:27:29.393Z,2.22
2023-05-06T17:29:56.443Z,2.40
2023-05-06T17:32:23.440Z,2.90
2023-05-06T17:34:50.853Z,2.17
2023-05-06T17:37:17.961Z,3.13
2023-05-06T17:39:46.460Z,2.25
2023-05-06T17:42:14.011Z,2.90
2023-05-06T17:44:42.960Z,3.10
2023-05-06T17:47:10.462Z,2.78
2023-05-06T17:49:37.524Z,2.90
2023-05-06T17:52:04.614Z,3.17
2023-05-06T17:54:36.563Z,2.80
2023-05-06T17:59:30.945Z,3.78
2023-05-06T18:01:58.498Z,2.60
2023-05-06T18:04:25.944Z,3.40
2023-05-06T18:06:53.175Z,3.85
2023-05-06T18:09:20.393Z,2.78
2023-05-06T18:11:47.471Z,3.20
2023-05-06T18:14:15.376Z,2.90
2023-05-06T18:16:42.532Z,3.00
2023-05-06T18:19:09.732Z,3.70
2023-05-06T18:21:36.884Z,4.25
2023-05-06T18:24:15.453Z,3.65
2023-05-06T18:26:45.745Z,3.47
2023-05-06T18:29:13.490Z,5.43
2023-05-06T18:31:40.780Z,4.50
2023-05-06T18:34:07.898Z,3.80
2023-05-06T18:36:36.696Z,3.78
2023-05-06T18:39:04.895Z,3.60
2023-05-06T18:41:31.985Z,3.90
2023-05-06T18:43:59.047Z,4.18
2023-05-06T18:46:27.734Z,4.28
2023-05-06T18:49:01.459Z,3.40
2023-05-06T18:51:30.514Z,2.75
2023-05-06T18:53:58.070Z,3.13
2023-05-06T18:56:27.173Z,2.88
2023-05-06T18:58:54.969Z,3.20
2023-05-06T19:01:23.060Z,3.25
2023-05-06T19:03:52.490Z,3.30
2023-05-06T19:06:20.908Z,5.20
2023-05-06T19:08:50.215Z,3.63
2023-05-06T19:11:27.633Z,3.70
2023-05-06T19:13:55.678Z,3.13
2023-05-06T19:16:23.820Z,4.97
2023-05-06T19:18:51.360Z,3.55
2023-05-06T19:21:19.819Z,7.35
2023-05-06T19:23:47.840Z,5.95
2023-05-06T19:26:15.802Z,5.90
2023-05-06T19:28:45.187Z,5.47
2023-05-06T19:31:12.767Z,4.65
2023-05-06T19:33:40.756Z,5.10
2023-05-06T19:36:09.826Z,6.25
2023-05-06T19:38:39.027Z,5.47
2023-05-06T19:41:08.017Z,6.93
2023-05-06T19:43:42.114Z,22.98
2023-05-06T19:46:10.381Z,5.50
2023-05-06T19:48:42.567Z,5.40
2023-05-06T19:53:39.456Z,4.32
2023-05-06T19:56:15.394Z,4.40
2023-05-06T19:58:47.545Z,4.97
2023-05-06T20:01:20.198Z,6.78
2023-05-06T20:03:49.911Z,5.20
2023-05-06T20:06:17.634Z,5.00
2023-05-06T20:08:46.088Z,4.35
2023-05-06T20:11:13.706Z,4.38
2023-05-06T20:13:42.245Z,4.05
2023-05-06T20:16:11.870Z,5.00
2023-05-06T20:18:42.132Z,5.40
2023-05-06T20:21:10.356Z,4.82
2023-05-06T20:23:40.210Z,5.00
2023-05-06T20:26:09.279Z,5.43
2023-05-06T20:28:40.506Z,4.80
2023-05-06T20:31:15.428Z,7.13
2023-05-06T20:33:43.907Z,6.28
2023-05-06T20:36:12.995Z,6.32
2023-05-06T20:38:43.148Z,6.20
2023-05-06T20:41:15.880Z,6.40
2023-05-06T20:43:43.177Z,7.68
2023-05-06T20:46:10.931Z,7.53
2023-05-06T20:48:38.099Z,6.63
2023-05-06T20:51:05.400Z,7.20
2023-05-06T20:53:32.827Z,6.80
2023-05-06T20:56:00.562Z,6.72
2023-05-06T20:58:29.506Z,7.13
2023-05-06T21:00:58.274Z,6.30
2023-05-06T21:03:26.178Z,5.60
2023-05-06T21:05:53.537Z,6.70
2023-05-06T21:08:21.106Z,7.45
2023-05-06T21:10:48.215Z,6.93
2023-05-06T21:13:15.979Z,6.65
2023-05-06T21:15:43.597Z,6.75
2023-05-06T21:18:11.773Z,6.72
2023-05-06T21:20:39.324Z,6.78
2023-05-06T21:23:06.581Z,6.90
2023-05-06T21:25:33.651Z,6.53
2023-05-06T21:28:07.761Z,6.40
2023-05-06T21:30:35.626Z,6.57
2023-05-06T21:33:03.240Z,6.28
2023-05-06T21:35:33.864Z,7.22
2023-05-06T21:38:01.149Z,6.57
2023-05-06T21:40:28.506Z,7.00
2023-05-06T21:42:55.604Z,8.48
2023-05-06T21:45:23.040Z,11.02
2023-05-06T21:47:50.407Z,10.15
2023-05-06T21:50:17.672Z,10.13
2023-05-06T21:52:44.806Z,9.73
2023-05-06T21:55:12.227Z,9.98
2023-05-06T21:57:39.579Z,10.50
2023-05-06T22:00:12.439Z,10.68
2023-05-06T22:02:41.101Z,10.98
2023-05-06T22:05:09.023Z,10.98
2023-05-06T22:07:36.465Z,10.40
2023-05-06T22:10:04.583Z,11.68
2023-05-06T22:12:32.811Z,12.02
2023-05-06T22:14:59.887Z,12.85
2023-05-06T22:17:27.550Z,13.70
2023-05-06T22:19:56.598Z,12.35
2023-05-06T22:22:24.529Z,13.13
2023-05-06T22:24:51.630Z,15.00
2023-05-06T22:27:18.868Z,15.73
2023-05-06T22:29:46.016Z,15.70
2023-05-06T22:32:13.359Z,15.75
2023-05-06T22:34:40.727Z,14.50
2023-05-06T22:37:11.353Z,14.02
2023-05-06T22:39:39.702Z,15.10
2023-05-06T22:42:06.901Z,15.05
2023-05-06T22:44:34.408Z,14.15
2023-05-06T22:47:01.653Z,14.95
2023-05-06T22:49:29.143Z,15.32
2023-05-06T22:51:56.565Z,11.00
2023-05-06T22:54:24.634Z,12.65
2023-05-06T22:56:51.837Z,12.40
2023-05-06T22:59:19.017Z,15.32
2023-05-06T23:01:46.529Z,11.50
2023-05-06T23:04:13.824Z,12.57
2023-05-06T23:06:41.444Z,11.10
2023-05-06T23:09:08.772Z,10.15
2023-05-06T23:11:36.095Z,10.75
2023-05-06T23:14:04.526Z,10.38
2023-05-06T23:16:31.679Z,12.00
2023-05-06T23:18:59.118Z,11.43
2023-05-06T23:21:27.505Z,11.23
2023-05-06T23:23:54.918Z,11.57
2023-05-06T23:26:22.065Z,12.02
2023-05-06T23:28:49.204Z,11.48
2023-05-06T23:31:16.471Z,10.23
2023-05-06T23:33:43.534Z,8.95
2023-05-06T23:36:10.997Z,8.23
2023-05-06T23:38:38.045Z,9.07
2023-05-06T23:41:05.438Z,8.90
2023-05-06T23:43:32.660Z,7.78
2023-05-06T23:45:59.751Z,7.18
2023-05-06T23:48:26.948Z,7.25
2023-05-06T23:50:54.747Z,7.50
2023-05-06T23:53:22.168Z,6.63
2023-05-06T23:55:49.690Z,6.68
2023-05-06T23:58:17.297Z,7.15
